Danali, Honduras
Current Conditions -  °F | °C
As of 2:00 AM on Saturday 25 Oct 2014 (Local Time) from MHTG Reporting Station
Rain Showers Rain Showers  
Wind Chill: 68°   Ceiling: 2400
Heat Index: 68°   Visibility: 5mi
Dew Point: 68°   Wind: 0mph
Humidity: 100%   Direction: NA
Pressure: 30.06"   Gusts: NA
Location:  14.02°N, 86.3°W
Report Text: MHTG 250800Z 00000KT 8000 VCSH FEW007 BKN024 20/20 Q1018 A3006 NOSIG
Loading
Personal Weather Stations






























Interactive Weather Map New forecast layout! Learn more

10-Day Weather Forecast

Advertisements
Track Severe Weather on mobile